^^
Station Historical Data
Daily Summary for July 19, 2017 Units:  English    Metric   Both
« Previous Day
Next Day »
Daily Weekly Monthly Yearly Custom
  High: Low: Average:
Temperature: 91.2 °F 73.9 °F 82.2 °F
Dew Point: 74.1 °F 63.0 °F 69.6 °F
Humidity: 91% 43% 69%
Wind Speed: 5.0mph 0.0mph 1.4mph
Wind Gust: 16.0mph - -
Wind- - SW
Pressure: 30.06 in 29.95 in -
Precipitation: 0.00 in    
Historical Graphs
 
 
Tabular Data for July 19, 2017
Time Temperature Dew Point Pressure Wind Wind Speed Wind Gust Humidity Rainfall Rate (Hourly) Conditions
00:00 76.8 °F 71.6 °F 30.06 in SSW 2.0 mph 5.0 mph 84% 0.00 in BKN
00:15 76.8 °F 71.6 °F 30.06 in SSW 2.0 mph 5.0 mph 84% 0.00 in CLR
00:30 76.8 °F 71.9 °F 30.06 in SSW 2.0 mph 6.0 mph 85% 0.00 in CLR
00:45 76.8 °F 71.9 °F 30.06 in SSW 1.0 mph 6.0 mph 85% 0.00 in CLR
01:00 76.8 °F 72.3 °F 30.06 in SSW 1.0 mph 7.0 mph 86% 0.00 in CLR
01:45 76.5 °F 72.3 °F 30.05 in SSW 3.0 mph 6.0 mph 87% 0.00 in CLR
02:00 76.4 °F 72.2 °F 30.05 in SW 2.0 mph 7.0 mph 87% 0.00 in CLR
02:15 76.3 °F 72.1 °F 30.05 in SSW 3.0 mph 9.0 mph 87% 0.00 in CLR
02:30 76.2 °F 72.0 °F 30.05 in SSW 2.0 mph 10.0 mph 87% 0.00 in CLR
02:45 76.2 °F 72.0 °F 30.05 in SW 2.0 mph 8.0 mph 87% 0.00 in CLR
03:00 75.9 °F 71.8 °F 30.04 in SW 2.0 mph 7.0 mph 87% 0.00 in CLR
03:15 75.7 °F 71.9 °F 30.05 in SSW 1.0 mph 6.0 mph 88% 0.00 in CLR
03:30 75.5 °F 71.7 °F 30.04 in SW 1.0 mph 6.0 mph 88% 0.00 in CLR
03:45 75.3 °F 71.5 °F 30.04 in Calm   6.0 mph 88% 0.00 in CLR
04:00 75.1 °F 71.7 °F 30.04 in South 2.0 mph 6.0 mph 89% 0.00 in CLR
04:15 75.0 °F 71.5 °F 30.04 in SW 1.0 mph 6.0 mph 89% 0.00 in CLR
04:30 74.8 °F 71.3 °F 30.04 in SSW 2.0 mph 6.0 mph 89% 0.00 in CLR
04:45 74.8 °F 71.3 °F 30.04 in SW 1.0 mph 6.0 mph 89% 0.00 in CLR
05:00 74.8 °F 71.3 °F 30.04 in SSW 2.0 mph 7.0 mph 89% 0.00 in CLR
05:15 74.8 °F 71.3 °F 30.04 in Calm   6.0 mph 89% 0.00 in CLR
05:30 74.7 °F 71.2 °F 30.04 in SW 1.0 mph 6.0 mph 89% 0.00 in CLR
05:45 74.6 °F 71.1 °F 30.04 in Calm   6.0 mph 89% 0.00 in CLR
06:00 74.1 °F 71.0 °F 30.04 in Calm   1.0 mph 90% 0.00 in CLR
06:15 73.9 °F 71.1 °F 30.04 in Calm   1.0 mph 91% 0.00 in CLR
06:30 73.9 °F 71.2 °F 30.04 in Calm   1.0 mph 91% 0.00 in CLR
06:45 74.2 °F 71.4 °F 30.05 in Calm   3.0 mph 91% 0.00 in CLR
07:00 74.4 °F 71.6 °F 30.05 in South 1.0 mph 2.0 mph 91% 0.00 in CLR
07:15 74.6 °F 71.8 °F 30.05 in Calm   6.0 mph 91% 0.00 in CLR
07:30 75.0 °F 71.9 °F 30.05 in SSW 2.0 mph 4.0 mph 90% 0.00 in CLR
07:45 75.7 °F 72.2 °F 30.05 in SSW 3.0 mph 6.0 mph 89% 0.00 in CLR
08:00 76.7 °F 72.9 °F 30.05 in SSW 2.0 mph 7.0 mph 88% 0.00 in CLR
08:15 77.7 °F 73.1 °F 30.05 in SSW 1.0 mph 7.0 mph 86% 0.00 in CLR
08:30 78.8 °F 73.2 °F 30.05 in SSW 1.0 mph 7.0 mph 83% 0.00 in CLR
08:45 79.2 °F 73.2 °F 30.05 in WSW 1.0 mph 6.0 mph 82% 0.00 in CLR
09:00 80.1 °F 73.7 °F 30.05 in SW 1.0 mph 7.0 mph 81% 0.00 in CLR
09:15 80.4 °F 73.7 °F 30.05 in SSW 3.0 mph 6.0 mph 80% 0.00 in SKC
09:30 81.6 °F 74.1 °F 30.05 in Calm   5.0 mph 78% 0.00 in SKC
09:45 82.1 °F 73.8 °F 30.04 in SSW 2.0 mph 6.0 mph 76% 0.00 in SKC
10:00 82.7 °F 73.2 °F 30.04 in Calm   6.0 mph 73% 0.00 in SKC
10:15 84.0 °F 73.6 °F 30.03 in SSW 2.0 mph 5.0 mph 71% 0.00 in FEW
10:30 83.7 °F 72.4 °F 30.04 in SW 2.0 mph 6.0 mph 69% 0.00 in FEW
10:45 84.4 °F 73.1 °F 30.04 in SSW 1.0 mph 6.0 mph 69% 0.00 in FEW
11:00 85.6 °F 73.3 °F 30.04 in SSW 1.0 mph 5.0 mph 67% 0.00 in FEW
11:15 86.1 °F 72.5 °F 30.03 in SSW 3.0 mph 9.0 mph 64% 0.00 in FEW
11:30 86.4 °F 71.9 °F 30.03 in WSW 2.0 mph 6.0 mph 62% 0.00 in FEW
11:45 86.5 °F 71.0 °F 30.02 in SSW 3.0 mph 9.0 mph 60% 0.00 in FEW
12:00 87.2 °F 71.6 °F 30.02 in SW 1.0 mph 7.0 mph 60% 0.00 in FEW
12:15 87.7 °F 67.9 °F 30.02 in SW 2.0 mph 8.0 mph 52% 0.00 in FEW
12:30 87.6 °F 66.0 °F 30.01 in West 1.0 mph 8.0 mph 49% 0.00 in FEW
12:45 88.1 °F 64.1 °F 30.01 in WSW 3.0 mph 9.0 mph 45% 0.00 in FEW
13:00 88.6 °F 63.9 °F 30.01 in SW 3.0 mph 10.0 mph 44% 0.00 in FEW
13:15 88.7 °F 63.3 °F 30.01 in SW 5.0 mph 8.0 mph 43% 0.00 in FEW
13:30 88.3 °F 63.0 °F 30.00 in South 5.0 mph 11.0 mph 43% 0.00 in FEW
13:45 88.8 °F 64.1 °F 30.00 in SW 5.0 mph 12.0 mph 44% 0.00 in FEW
14:00 88.5 °F 65.1 °F 30.00 in Calm   10.0 mph 46% 0.00 in FEW
14:15 89.2 °F 65.7 °F 30.00 in NW 2.0 mph 8.0 mph 46% 0.00 in FEW
14:30 89.4 °F 66.5 °F 29.99 in WSW 2.0 mph 12.0 mph 47% 0.00 in FEW
14:45 89.9 °F 65.7 °F 29.99 in WSW 2.0 mph 10.0 mph 45% 0.00 in FEW
15:00 90.2 °F 67.9 °F 29.99 in SW 1.0 mph 9.0 mph 48% 0.00 in FEW
15:15 90.3 °F 67.9 °F 29.98 in SW 3.0 mph 10.0 mph 48% 0.00 in FEW
15:30 90.3 °F 67.3 °F 29.98 in SSW 2.0 mph 12.0 mph 47% 0.00 in FEW
15:45 90.4 °F 67.5 °F 29.97 in WNW 2.0 mph 11.0 mph 47% 0.00 in FEW
16:00 90.9 °F 65.3 °F 29.97 in WNW 3.0 mph 16.0 mph 43% 0.00 in FEW
16:15 90.8 °F 65.9 °F 29.97 in SW 3.0 mph 7.0 mph 44% 0.00 in FEW
16:30 91.2 °F 66.2 °F 29.96 in SW 3.0 mph 9.0 mph 44% 0.00 in FEW
16:45 91.0 °F 65.4 °F 29.96 in SW 3.0 mph 10.0 mph 43% 0.00 in FEW
17:00 90.8 °F 66.5 °F 29.96 in SSW 3.0 mph 10.0 mph 45% 0.00 in FEW
17:15 90.4 °F 65.5 °F 29.96 in SW 3.0 mph 14.0 mph 44% 0.00 in FEW
17:30 90.2 °F 66.0 °F 29.96 in SW 3.0 mph 13.0 mph 45% 0.00 in FEW
17:45 90.2 °F 66.6 °F 29.96 in WSW 3.0 mph 12.0 mph 46% 0.00 in FEW
18:00 90.5 °F 67.5 °F 29.95 in SW 2.0 mph 9.0 mph 47% 0.00 in FEW
18:15 90.8 °F 67.8 °F 29.95 in South 2.0 mph 8.0 mph 47% 0.00 in FEW
18:30 90.2 °F 67.2 °F 29.95 in SW 1.0 mph 7.0 mph 47% 0.00 in FEW
18:45 90.2 °F 67.9 °F 29.95 in Calm   5.0 mph 48% 0.00 in FEW
19:00 89.5 °F 67.8 °F 29.95 in Calm   6.0 mph 49% 0.00 in FEW
19:30 88.2 °F 68.4 °F 29.95 in Calm   2.0 mph 52% 0.00 in FEW
19:45 87.2 °F 68.5 °F 29.96 in Calm   2.0 mph 54% 0.00 in FEW
20:00 85.9 °F 68.4 °F 29.96 in Calm   3.0 mph 56% 0.00 in FEW
20:15 84.8 °F 68.4 °F 29.97 in Calm   1.0 mph 58% 0.00 in SKC
20:30 84.0 °F 68.1 °F 29.97 in Calm   3.0 mph 59% 0.00 in SKC
20:45 83.6 °F 67.8 °F 29.98 in SSE 1.0 mph 3.0 mph 59% 0.00 in SKC
21:00 83.4 °F 68.1 °F 29.98 in Calm   2.0 mph 60% 0.00 in SKC
21:15 82.7 °F 68.8 °F 29.98 in Calm   1.0 mph 63% 0.00 in CLR
21:30 81.6 °F 68.7 °F 29.99 in Calm     65% 0.00 in CLR
21:45 80.6 °F 68.6 °F 29.98 in Calm     67% 0.00 in CLR
22:00 79.8 °F 68.3 °F 29.98 in Calm     68% 0.00 in CLR
22:15 79.0 °F 68.8 °F 29.98 in Calm     71% 0.00 in CLR
22:30 78.4 °F 69.0 °F 29.98 in Calm     73% 0.00 in CLR
22:45 78.0 °F 69.0 °F 29.99 in Calm     74% 0.00 in CLR
23:00 77.4 °F 69.2 °F 29.99 in Calm     76% 0.00 in CLR
23:15 76.9 °F 69.1 °F 29.99 in Calm     77% 0.00 in CLR
23:30 76.6 °F 69.2 °F 29.99 in Calm     78% 0.00 in CLR
23:45 76.1 °F 69.5 °F 29.99 in Calm     80% 0.00 in CLR
TarryTown NY Weather
Compliments of Weather Underground - 1.5 mb